Aeroporto :
LOGIN :

Iscrizione | Disclaimer

   EN    FR    IT 

 










Sommario :    VFR   VFR Marginale   IFR   IFR Intensivo   IFR Molto Intensivo
Visibilità : 
Base nubi : 
>= 8 km
>= 3000ft
5 / 8 km
1000 / 3000 ft
1500m / 5 km
500 / 1000 ft
800 / 1500m
200 / 500 ft
< 800m
< 200 ft
Simboli :   Temporali  Nebbia  Neve Forte  Precipitazioni Forti  Vento > 20 kt
SIGMETs :   Varie  Temporali  Ghiacco  Turbolenza  Onda orograficha  Ceneri Vulcaniche






- Altitudine del aeroporto : 1197 ft
- Codice IATA : SPM


ETAD - Spangdahlem Ab

ULTIMO METAR :
  • 211756Z AUTO 17004KT 9999 -RA FEW009 SCT014 BKN023 OVC031 06/05 A2932 RMK AO2 RAE1656RAB03E16RAB18 CIG 021 RWY05 SLP926 P0002 60002 T00600048 10072 20058 57026 TSNO

METARs OBSOLETI :
  • 211656Z AUTO 18008KT 9999 -RA SCT017 SCT024 BKN034 06/04 A2936 RMK AO2 RAB33 SLP939 P0000 T00610036 RVRNO
  • 211556Z AUTO 20013G17KT 9999 OVC025 07/02 A2939 RMK AO2 OVC V BKN CIG 024 RWY24 SLP948 T00650018 RVRNO

TAF TAF ETAD
Valido dal 20 a 13 ore il 21 a 19 ore UTC


201301Z 2013/2119 21007KT 9999 BKN180 QNH2958INS
BECMG 2018/2019 20010G20KT 9999 SCT100 QNH2951INS
BECMG 2100/2101 19015G25KT 9999 BKN020 620206 520003 QNH2939INS
TEMPO 2103/2106 20025G35KT
BECMG 2106/2107 21015G25KT 9000 -RA OVC020 650209 530004 QNH2932INS
BECMG 2113/2114 23015G25KT 9999 NSW BKN015 OVC030 620154 520003 QNH2945INS TX07/2013Z TN04/2109Z



MetMap, La meteo Aeronautica in un colpo d'occhio ! - Copyright ORBIFLY Dicembre 2007 - Disclaimer

ORBIFLY MET'MAP TEAM :

Programmazione e sviluppo : Alexandra Zaïnal
Concezione : Baudouin d'Aumeries
Aiuto per la programmazione : Marc-Olivier Méhu
Supporto tecnico e logistico : Manuel Goepfert
Aiuto per la traduzione : Arnaldo La Scala

Contatto : metmap@orbifly.com




FONTI E CREDITI :

   NOAA